sensor_id;sensor_type;location;lat;lon;timestamp;temperature;humidity
30983;DHT22;17660;52.578;13.288;2023-05-02T00:00:38;16.10;67.90
30983;DHT22;17660;52.578;13.288;2023-05-02T00:03:05;16.10;68.30
30983;DHT22;17660;52.578;13.288;2023-05-02T00:05:34;16.10;68.10
30983;DHT22;17660;52.578;13.288;2023-05-02T00:08:00;16.00;67.70
30983;DHT22;17660;52.578;13.288;2023-05-02T00:10:27;16.00;68.30
30983;DHT22;17660;52.578;13.288;2023-05-02T00:12:54;16.00;68.20
30983;DHT22;17660;52.578;13.288;2023-05-02T00:15:21;15.90;68.30
30983;DHT22;17660;52.578;13.288;2023-05-02T00:17:47;15.90;68.60
30983;DHT22;17660;52.578;13.288;2023-05-02T00:20:14;15.80;68.90
30983;DHT22;17660;52.578;13.288;2023-05-02T00:22:41;15.80;68.90
30983;DHT22;17660;52.578;13.288;2023-05-02T00:25:08;15.80;68.50
30983;DHT22;17660;52.578;13.288;2023-05-02T00:27:34;15.70;68.80
30983;DHT22;17660;52.578;13.288;2023-05-02T00:30:01;15.70;68.60
30983;DHT22;17660;52.578;13.288;2023-05-02T00:32:28;15.70;68.30
30983;DHT22;17660;52.578;13.288;2023-05-02T00:34:55;15.70;68.00
30983;DHT22;17660;52.578;13.288;2023-05-02T00:37:24;15.60;68.20
30983;DHT22;17660;52.578;13.288;2023-05-02T00:39:51;15.50;68.70
30983;DHT22;17660;52.578;13.288;2023-05-02T00:42:17;15.50;69.00
30983;DHT22;17660;52.578;13.288;2023-05-02T00:44:44;15.60;68.60
30983;DHT22;17660;52.578;13.288;2023-05-02T00:47:13;15.50;68.40
30983;DHT22;17660;52.578;13.288;2023-05-02T00:49:40;15.50;68.70
30983;DHT22;17660;52.578;13.288;2023-05-02T00:52:07;15.40;69.10
30983;DHT22;17660;52.578;13.288;2023-05-02T00:54:34;15.40;69.20
30983;DHT22;17660;52.578;13.288;2023-05-02T00:57:02;15.40;68.90
30983;DHT22;17660;52.578;13.288;2023-05-02T00:59:29;15.40;69.10
30983;DHT22;17660;52.578;13.288;2023-05-02T01:10:13;15.30;68.80
30983;DHT22;17660;52.578;13.288;2023-05-02T01:12:45;15.30;68.80
30983;DHT22;17660;52.578;13.288;2023-05-02T01:15:15;15.30;69.30
30983;DHT22;17660;52.578;13.288;2023-05-02T01:17:43;15.30;69.90
30983;DHT22;17660;52.578;13.288;2023-05-02T01:20:13;15.30;69.60
30983;DHT22;17660;52.578;13.288;2023-05-02T01:22:41;15.30;69.80
30983;DHT22;17660;52.578;13.288;2023-05-02T01:30:13;15.20;71.10
30983;DHT22;17660;52.578;13.288;2023-05-02T01:32:41;15.20;71.30
30983;DHT22;17660;52.578;13.288;2023-05-02T01:35:09;15.20;71.50
30983;DHT22;17660;52.578;13.288;2023-05-02T01:37:36;15.10;72.00
30983;DHT22;17660;52.578;13.288;2023-05-02T01:40:03;15.10;71.80
30983;DHT22;17660;52.578;13.288;2023-05-02T01:42:31;15.10;72.00
30983;DHT22;17660;52.578;13.288;2023-05-02T01:44:58;15.10;72.10
30983;DHT22;17660;52.578;13.288;2023-05-02T01:47:25;15.00;72.10
30983;DHT22;17660;52.578;13.288;2023-05-02T01:49:53;14.70;73.00
30983;DHT22;17660;52.578;13.288;2023-05-02T01:52:20;14.80;73.00
30983;DHT22;17660;52.578;13.288;2023-05-02T01:54:48;14.90;73.00
30983;DHT22;17660;52.578;13.288;2023-05-02T01:57:15;14.90;72.70
30983;DHT22;17660;52.578;13.288;2023-05-02T01:59:43;14.90;72.40
30983;DHT22;17660;52.578;13.288;2023-05-02T02:02:10;14.80;72.40
30983;DHT22;17660;52.578;13.288;2023-05-02T02:04:38;14.80;73.00
30983;DHT22;17660;52.578;13.288;2023-05-02T02:07:07;14.70;73.10
30983;DHT22;17660;52.578;13.288;2023-05-02T02:09:34;14.80;73.90
30983;DHT22;17660;52.578;13.288;2023-05-02T02:12:03;14.70;73.40
30983;DHT22;17660;52.578;13.288;2023-05-02T02:15:17;14.70;73.60
30983;DHT22;17660;52.578;13.288;2023-05-02T02:17:21;14.50;74.00
30983;DHT22;17660;52.578;13.288;2023-05-02T02:19:49;14.60;73.80
30983;DHT22;17660;52.578;13.288;2023-05-02T02:22:18;14.60;74.00
30983;DHT22;17660;52.578;13.288;2023-05-02T02:24:46;14.50;74.00
30983;DHT22;17660;52.578;13.288;2023-05-02T02:27:13;14.60;73.60
30983;DHT22;17660;52.578;13.288;2023-05-02T02:29:40;14.60;73.60
30983;DHT22;17660;52.578;13.288;2023-05-02T02:32:06;14.60;73.40
30983;DHT22;17660;52.578;13.288;2023-05-02T02:34:33;14.70;73.50
30983;DHT22;17660;52.578;13.288;2023-05-02T02:37:00;14.70;73.60
30983;DHT22;17660;52.578;13.288;2023-05-02T02:39:34;14.60;73.40
30983;DHT22;17660;52.578;13.288;2023-05-02T02:42:03;14.60;73.60
30983;DHT22;17660;52.578;13.288;2023-05-02T02:44:42;14.60;73.60
30983;DHT22;17660;52.578;13.288;2023-05-02T02:47:13;14.60;73.40
30983;DHT22;17660;52.578;13.288;2023-05-02T02:49:46;14.60;73.30
30983;DHT22;17660;52.578;13.288;2023-05-02T02:55:06;14.50;73.70
30983;DHT22;17660;52.578;13.288;2023-05-02T03:00:12;14.20;74.70
30983;DHT22;17660;52.578;13.288;2023-05-02T03:02:39;14.30;74.50
30983;DHT22;17660;52.578;13.288;2023-05-02T03:05:07;14.40;74.50
30983;DHT22;17660;52.578;13.288;2023-05-02T03:07:35;14.40;74.20
30983;DHT22;17660;52.578;13.288;2023-05-02T03:10:03;14.40;74.20
30983;DHT22;17660;52.578;13.288;2023-05-02T03:12:30;14.30;74.40
30983;DHT22;17660;52.578;13.288;2023-05-02T03:15:01;14.30;74.20
30983;DHT22;17660;52.578;13.288;2023-05-02T03:17:28;14.40;74.40
30983;DHT22;17660;52.578;13.288;2023-05-02T03:19:57;14.40;74.40
30983;DHT22;17660;52.578;13.288;2023-05-02T03:22:24;14.30;75.00
30983;DHT22;17660;52.578;13.288;2023-05-02T03:24:50;14.30;75.20
30983;DHT22;17660;52.578;13.288;2023-05-02T03:27:17;14.20;75.60
30983;DHT22;17660;52.578;13.288;2023-05-02T03:29:44;14.20;75.90
30983;DHT22;17660;52.578;13.288;2023-05-02T03:32:10;14.00;76.40
30983;DHT22;17660;52.578;13.288;2023-05-02T03:34:37;14.00;76.50
30983;DHT22;17660;52.578;13.288;2023-05-02T03:37:04;14.00;76.50
30983;DHT22;17660;52.578;13.288;2023-05-02T03:39:30;14.00;76.50
30983;DHT22;17660;52.578;13.288;2023-05-02T03:41:57;14.00;77.20
30983;DHT22;17660;52.578;13.288;2023-05-02T03:44:23;14.00;77.00
30983;DHT22;17660;52.578;13.288;2023-05-02T03:46:50;14.00;77.20
30983;DHT22;17660;52.578;13.288;2023-05-02T03:49:17;13.90;77.50
30983;DHT22;17660;52.578;13.288;2023-05-02T03:51:45;13.90;77.50
30983;DHT22;17660;52.578;13.288;2023-05-02T03:54:11;14.00;77.90
30983;DHT22;17660;52.578;13.288;2023-05-02T03:56:38;13.90;77.60
30983;DHT22;17660;52.578;13.288;2023-05-02T03:59:08;13.90;77.60
30983;DHT22;17660;52.578;13.288;2023-05-02T04:01:35;13.90;78.10
30983;DHT22;17660;52.578;13.288;2023-05-02T04:04:01;13.80;78.80
30983;DHT22;17660;52.578;13.288;2023-05-02T04:06:28;13.70;79.10
30983;DHT22;17660;52.578;13.288;2023-05-02T04:08:55;10.70;77.40
30983;DHT22;17660;52.578;13.288;2023-05-02T04:11:24;13.80;79.30
30983;DHT22;17660;52.578;13.288;2023-05-02T04:13:51;13.80;79.40
30983;DHT22;17660;52.578;13.288;2023-05-02T04:16:18;13.80;79.60
30983;DHT22;17660;52.578;13.288;2023-05-02T04:18:45;13.80;79.30
30983;DHT22;17660;52.578;13.288;2023-05-02T04:21:12;13.70;79.90
30983;DHT22;17660;52.578;13.288;2023-05-02T04:23:38;13.70;80.00
30983;DHT22;17660;52.578;13.288;2023-05-02T04:26:05;13.40;80.80
30983;DHT22;17660;52.578;13.288;2023-05-02T04:28:33;13.60;80.60
30983;DHT22;17660;52.578;13.288;2023-05-02T04:31:00;13.60;80.60
30983;DHT22;17660;52.578;13.288;2023-05-02T04:33:28;13.60;81.00
30983;DHT22;17660;52.578;13.288;2023-05-02T04:35:55;13.80;80.80
30983;DHT22;17660;52.578;13.288;2023-05-02T04:38:22;13.90;80.60
30983;DHT22;17660;52.578;13.288;2023-05-02T04:40:49;13.90;80.20
30983;DHT22;17660;52.578;13.288;2023-05-02T04:43:17;14.00;80.00
30983;DHT22;17660;52.578;13.288;2023-05-02T04:45:44;14.10;79.50
30983;DHT22;17660;52.578;13.288;2023-05-02T04:48:11;14.20;79.10
30983;DHT22;17660;52.578;13.288;2023-05-02T04:50:37;14.20;79.00
30983;DHT22;17660;52.578;13.288;2023-05-02T04:53:04;14.20;79.20
30983;DHT22;17660;52.578;13.288;2023-05-02T04:55:31;14.30;78.70
30983;DHT22;17660;52.578;13.288;2023-05-02T04:57:58;14.30;78.70
30983;DHT22;17660;52.578;13.288;2023-05-02T05:00:24;14.30;78.20
30983;DHT22;17660;52.578;13.288;2023-05-02T05:02:51;14.30;78.30
30983;DHT22;17660;52.578;13.288;2023-05-02T05:05:18;14.40;78.10
30983;DHT22;17660;52.578;13.288;2023-05-02T05:07:45;14.40;78.20
30983;DHT22;17660;52.578;13.288;2023-05-02T05:10:12;14.40;78.00
30983;DHT22;17660;52.578;13.288;2023-05-02T05:12:39;14.20;78.40
30983;DHT22;17660;52.578;13.288;2023-05-02T05:15:06;14.20;79.00
30983;DHT22;17660;52.578;13.288;2023-05-02T05:17:33;14.00;78.60
30983;DHT22;17660;52.578;13.288;2023-05-02T05:20:00;14.00;79.10
30983;DHT22;17660;52.578;13.288;2023-05-02T05:22:27;13.90;79.40
30983;DHT22;17660;52.578;13.288;2023-05-02T05:24:54;14.00;79.70
30983;DHT22;17660;52.578;13.288;2023-05-02T05:27:21;14.00;79.80
30983;DHT22;17660;52.578;13.288;2023-05-02T05:29:47;14.10;80.20
30983;DHT22;17660;52.578;13.288;2023-05-02T05:32:14;14.20;79.20
30983;DHT22;17660;52.578;13.288;2023-05-02T05:34:41;14.30;79.40
30983;DHT22;17660;52.578;13.288;2023-05-02T05:37:07;14.30;79.50
30983;DHT22;17660;52.578;13.288;2023-05-02T05:39:34;14.40;79.10
30983;DHT22;17660;52.578;13.288;2023-05-02T05:42:01;14.30;79.40
30983;DHT22;17660;52.578;13.288;2023-05-02T05:44:29;14.40;79.60
30983;DHT22;17660;52.578;13.288;2023-05-02T05:46:55;14.50;79.30
30983;DHT22;17660;52.578;13.288;2023-05-02T05:49:22;14.50;79.60
30983;DHT22;17660;52.578;13.288;2023-05-02T05:51:49;14.40;79.70
30983;DHT22;17660;52.578;13.288;2023-05-02T05:54:16;14.40;80.10
30983;DHT22;17660;52.578;13.288;2023-05-02T05:56:44;14.50;80.40
30983;DHT22;17660;52.578;13.288;2023-05-02T05:59:11;14.60;80.10
30983;DHT22;17660;52.578;13.288;2023-05-02T06:01:38;14.60;79.80
30983;DHT22;17660;52.578;13.288;2023-05-02T06:04:05;14.80;79.90
30983;DHT22;17660;52.578;13.288;2023-05-02T06:06:32;15.00;79.40
30983;DHT22;17660;52.578;13.288;2023-05-02T06:08:59;15.20;79.20
30983;DHT22;17660;52.578;13.288;2023-05-02T06:11:26;15.30;78.90
30983;DHT22;17660;52.578;13.288;2023-05-02T06:13:53;15.40;79.20
30983;DHT22;17660;52.578;13.288;2023-05-02T06:16:19;15.30;79.50
30983;DHT22;17660;52.578;13.288;2023-05-02T06:18:46;15.40;79.70
30983;DHT22;17660;52.578;13.288;2023-05-02T06:21:13;15.60;79.80
30983;DHT22;17660;52.578;13.288;2023-05-02T06:23:39;15.80;79.50
30983;DHT22;17660;52.578;13.288;2023-05-02T06:26:06;15.80;79.50
30983;DHT22;17660;52.578;13.288;2023-05-02T06:28:33;15.90;79.20
30983;DHT22;17660;52.578;13.288;2023-05-02T06:31:00;16.00;79.50
30983;DHT22;17660;52.578;13.288;2023-05-02T06:33:28;16.00;79.90
30983;DHT22;17660;52.578;13.288;2023-05-02T06:35:55;16.20;78.80
30983;DHT22;17660;52.578;13.288;2023-05-02T06:38:22;16.50;78.50
30983;DHT22;17660;52.578;13.288;2023-05-02T06:40:49;16.60;77.70
30983;DHT22;17660;52.578;13.288;2023-05-02T06:43:15;16.80;77.70
30983;DHT22;17660;52.578;13.288;2023-05-02T06:45:42;17.10;77.20
30983;DHT22;17660;52.578;13.288;2023-05-02T06:48:09;17.40;76.30
30983;DHT22;17660;52.578;13.288;2023-05-02T06:50:36;17.30;75.80
30983;DHT22;17660;52.578;13.288;2023-05-02T06:53:03;17.50;76.40
30983;DHT22;17660;52.578;13.288;2023-05-02T06:55:31;17.50;76.30
30983;DHT22;17660;52.578;13.288;2023-05-02T06:57:58;17.40;76.10
30983;DHT22;17660;52.578;13.288;2023-05-02T07:00:24;17.50;76.60
30983;DHT22;17660;52.578;13.288;2023-05-02T07:02:51;17.60;76.30
30983;DHT22;17660;52.578;13.288;2023-05-02T07:05:18;17.50;76.00
30983;DHT22;17660;52.578;13.288;2023-05-02T07:07:44;17.60;76.40
30983;DHT22;17660;52.578;13.288;2023-05-02T07:10:11;17.70;76.40
30983;DHT22;17660;52.578;13.288;2023-05-02T07:12:38;18.00;76.10
30983;DHT22;17660;52.578;13.288;2023-05-02T07:15:05;18.40;75.50
30983;DHT22;17660;52.578;13.288;2023-05-02T07:17:32;18.60;74.70
30983;DHT22;17660;52.578;13.288;2023-05-02T07:19:58;18.70;74.80
30983;DHT22;17660;52.578;13.288;2023-05-02T07:22:25;18.40;74.80
30983;DHT22;17660;52.578;13.288;2023-05-02T07:24:56;18.10;75.50
30983;DHT22;17660;52.578;13.288;2023-05-02T07:27:22;17.90;76.50
30983;DHT22;17660;52.578;13.288;2023-05-02T07:29:49;17.80;77.40
30983;DHT22;17660;52.578;13.288;2023-05-02T07:32:16;17.90;76.60
30983;DHT22;17660;52.578;13.288;2023-05-02T07:34:43;17.90;77.10
30983;DHT22;17660;52.578;13.288;2023-05-02T07:37:10;17.90;76.90
30983;DHT22;17660;52.578;13.288;2023-05-02T07:39:37;18.00;76.90
30983;DHT22;17660;52.578;13.288;2023-05-02T07:42:04;18.00;76.40
30983;DHT22;17660;52.578;13.288;2023-05-02T07:44:31;18.00;76.70
30983;DHT22;17660;52.578;13.288;2023-05-02T07:47:02;17.80;76.00
30983;DHT22;17660;52.578;13.288;2023-05-02T07:49:28;17.70;77.60
30983;DHT22;17660;52.578;13.288;2023-05-02T07:51:56;17.50;77.40
30983;DHT22;17660;52.578;13.288;2023-05-02T07:54:23;17.40;77.10
30983;DHT22;17660;52.578;13.288;2023-05-02T07:56:53;17.40;76.90
30983;DHT22;17660;52.578;13.288;2023-05-02T07:59:20;17.30;77.40
30983;DHT22;17660;52.578;13.288;2023-05-02T08:01:46;17.10;78.30
30983;DHT22;17660;52.578;13.288;2023-05-02T08:04:13;17.10;78.40
30983;DHT22;17660;52.578;13.288;2023-05-02T08:06:42;17.20;78.80
30983;DHT22;17660;52.578;13.288;2023-05-02T08:09:09;17.10;79.00
30983;DHT22;17660;52.578;13.288;2023-05-02T08:11:36;17.10;79.80
30983;DHT22;17660;52.578;13.288;2023-05-02T08:14:02;17.00;80.40
30983;DHT22;17660;52.578;13.288;2023-05-02T08:16:29;17.00;80.10
30983;DHT22;17660;52.578;13.288;2023-05-02T08:18:56;17.00;80.10
30983;DHT22;17660;52.578;13.288;2023-05-02T08:21:23;17.00;80.70
30983;DHT22;17660;52.578;13.288;2023-05-02T08:23:49;16.60;81.30
30983;DHT22;17660;52.578;13.288;2023-05-02T08:26:16;16.40;82.40
30983;DHT22;17660;52.578;13.288;2023-05-02T08:28:44;16.40;82.60
30983;DHT22;17660;52.578;13.288;2023-05-02T08:31:11;16.50;82.30
30983;DHT22;17660;52.578;13.288;2023-05-02T08:33:37;16.40;82.10
30983;DHT22;17660;52.578;13.288;2023-05-02T08:36:13;16.40;82.10
30983;DHT22;17660;52.578;13.288;2023-05-02T08:38:41;16.40;82.00
30983;DHT22;17660;52.578;13.288;2023-05-02T08:41:11;16.40;82.40
30983;DHT22;17660;52.578;13.288;2023-05-02T08:43:38;16.20;82.80
30983;DHT22;17660;52.578;13.288;2023-05-02T08:46:05;16.10;83.60
30983;DHT22;17660;52.578;13.288;2023-05-02T08:48:35;16.10;83.80
30983;DHT22;17660;52.578;13.288;2023-05-02T08:51:02;16.20;83.70
30983;DHT22;17660;52.578;13.288;2023-05-02T08:53:31;16.10;84.10
30983;DHT22;17660;52.578;13.288;2023-05-02T08:55:59;16.20;83.50
30983;DHT22;17660;52.578;13.288;2023-05-02T08:58:26;16.20;83.70
30983;DHT22;17660;52.578;13.288;2023-05-02T09:00:53;16.50;83.60
30983;DHT22;17660;52.578;13.288;2023-05-02T09:05:52;16.50;83.50
30983;DHT22;17660;52.578;13.288;2023-05-02T09:08:23;16.70;83.20
30983;DHT22;17660;52.578;13.288;2023-05-02T09:10:50;16.80;83.40
30983;DHT22;17660;52.578;13.288;2023-05-02T09:13:29;17.00;82.40
30983;DHT22;17660;52.578;13.288;2023-05-02T09:15:57;17.20;81.70
30983;DHT22;17660;52.578;13.288;2023-05-02T09:18:29;17.00;82.00
30983;DHT22;17660;52.578;13.288;2023-05-02T09:20:59;16.80;82.50
30983;DHT22;17660;52.578;13.288;2023-05-02T09:23:36;16.70;83.00
30983;DHT22;17660;52.578;13.288;2023-05-02T09:26:21;16.50;83.60
30983;DHT22;17660;52.578;13.288;2023-05-02T09:31:16;16.70;83.50
30983;DHT22;17660;52.578;13.288;2023-05-02T09:34:07;16.60;84.00
30983;DHT22;17660;52.578;13.288;2023-05-02T09:39:14;16.80;83.30
30983;DHT22;17660;52.578;13.288;2023-05-02T09:41:42;16.90;83.70
30983;DHT22;17660;52.578;13.288;2023-05-02T09:44:09;16.80;83.60
30983;DHT22;17660;52.578;13.288;2023-05-02T09:46:40;16.80;83.60
30983;DHT22;17660;52.578;13.288;2023-05-02T09:49:07;16.90;83.50
30983;DHT22;17660;52.578;13.288;2023-05-02T09:51:35;17.10;83.00
30983;DHT22;17660;52.578;13.288;2023-05-02T09:54:02;17.40;82.50
30983;DHT22;17660;52.578;13.288;2023-05-02T09:56:29;17.40;82.10
30983;DHT22;17660;52.578;13.288;2023-05-02T09:59:11;17.30;81.90
30983;DHT22;17660;52.578;13.288;2023-05-02T10:01:41;17.20;82.30
30983;DHT22;17660;52.578;13.288;2023-05-02T10:04:10;17.20;81.90
30983;DHT22;17660;52.578;13.288;2023-05-02T10:06:37;17.00;82.10
30983;DHT22;17660;52.578;13.288;2023-05-02T10:09:04;16.90;82.10
30983;DHT22;17660;52.578;13.288;2023-05-02T10:11:31;17.00;82.20
30983;DHT22;17660;52.578;13.288;2023-05-02T10:13:58;17.00;81.80
30983;DHT22;17660;52.578;13.288;2023-05-02T10:16:26;17.10;82.40
30983;DHT22;17660;52.578;13.288;2023-05-02T10:21:25;16.90;82.40
30983;DHT22;17660;52.578;13.288;2023-05-02T10:23:55;16.80;82.70
30983;DHT22;17660;52.578;13.288;2023-05-02T10:26:21;16.50;83.10
30983;DHT22;17660;52.578;13.288;2023-05-02T10:28:51;16.50;83.10
30983;DHT22;17660;52.578;13.288;2023-05-02T10:31:19;16.30;84.00
30983;DHT22;17660;52.578;13.288;2023-05-02T10:33:49;16.30;84.50
30983;DHT22;17660;52.578;13.288;2023-05-02T10:36:19;16.10;84.30
30983;DHT22;17660;52.578;13.288;2023-05-02T10:38:46;16.00;84.60
30983;DHT22;17660;52.578;13.288;2023-05-02T10:41:14;15.90;84.90
30983;DHT22;17660;52.578;13.288;2023-05-02T10:43:44;15.90;84.80
30983;DHT22;17660;52.578;13.288;2023-05-02T10:51:27;16.00;85.00
30983;DHT22;17660;52.578;13.288;2023-05-02T10:59:29;15.60;84.50
30983;DHT22;17660;52.578;13.288;2023-05-02T11:01:56;15.50;84.40
30983;DHT22;17660;52.578;13.288;2023-05-02T11:04:23;15.40;84.10
30983;DHT22;17660;52.578;13.288;2023-05-02T11:11:53;16.20;81.60
30983;DHT22;17660;52.578;13.288;2023-05-02T11:19:25;16.10;78.40
30983;DHT22;17660;52.578;13.288;2023-05-02T11:24:43;16.20;77.50
30983;DHT22;17660;52.578;13.288;2023-05-02T11:29:57;16.60;75.90
30983;DHT22;17660;52.578;13.288;2023-05-02T11:32:24;16.80;75.60
30983;DHT22;17660;52.578;13.288;2023-05-02T11:34:51;16.80;74.90
30983;DHT22;17660;52.578;13.288;2023-05-02T11:37:18;16.80;74.50
30983;DHT22;17660;52.578;13.288;2023-05-02T11:39:45;16.60;74.40
30983;DHT22;17660;52.578;13.288;2023-05-02T11:42:28;16.50;75.10
30983;DHT22;17660;52.578;13.288;2023-05-02T11:44:58;16.60;75.20
30983;DHT22;17660;52.578;13.288;2023-05-02T11:47:26;16.70;73.70
30983;DHT22;17660;52.578;13.288;2023-05-02T11:49:56;16.60;74.20
30983;DHT22;17660;52.578;13.288;2023-05-02T11:52:23;16.60;74.70
30983;DHT22;17660;52.578;13.288;2023-05-02T11:54:53;16.50;75.30
30983;DHT22;17660;52.578;13.288;2023-05-02T11:57:20;16.40;76.00
30983;DHT22;17660;52.578;13.288;2023-05-02T11:59:51;16.30;75.70
30983;DHT22;17660;52.578;13.288;2023-05-02T12:02:18;16.10;75.10
30983;DHT22;17660;52.578;13.288;2023-05-02T12:04:45;16.20;74.40
30983;DHT22;17660;52.578;13.288;2023-05-02T12:07:12;16.50;74.60
30983;DHT22;17660;52.578;13.288;2023-05-02T12:09:52;16.90;73.00
30983;DHT22;17660;52.578;13.288;2023-05-02T12:12:19;17.00;72.70
30983;DHT22;17660;52.578;13.288;2023-05-02T12:14:46;17.30;72.00
30983;DHT22;17660;52.578;13.288;2023-05-02T12:17:13;16.80;71.80
30983;DHT22;17660;52.578;13.288;2023-05-02T12:19:40;16.50;73.10
30983;DHT22;17660;52.578;13.288;2023-05-02T12:22:08;16.40;74.20
30983;DHT22;17660;52.578;13.288;2023-05-02T12:24:35;16.30;74.90
30983;DHT22;17660;52.578;13.288;2023-05-02T12:27:11;16.60;74.20
30983;DHT22;17660;52.578;13.288;2023-05-02T12:29:42;16.70;72.40
30983;DHT22;17660;52.578;13.288;2023-05-02T12:32:13;17.10;72.20
30983;DHT22;17660;52.578;13.288;2023-05-02T12:34:40;17.70;71.10
30983;DHT22;17660;52.578;13.288;2023-05-02T12:37:07;18.00;70.10
30983;DHT22;17660;52.578;13.288;2023-05-02T12:39:37;18.20;71.00
30983;DHT22;17660;52.578;13.288;2023-05-02T12:42:08;18.80;69.20
30983;DHT22;17660;52.578;13.288;2023-05-02T12:44:35;19.00;69.00
30983;DHT22;17660;52.578;13.288;2023-05-02T12:47:02;19.00;67.40
30983;DHT22;17660;52.578;13.288;2023-05-02T12:49:29;19.50;68.70
30983;DHT22;17660;52.578;13.288;2023-05-02T12:51:56;20.00;66.50
30983;DHT22;17660;52.578;13.288;2023-05-02T12:54:22;20.40;65.20
30983;DHT22;17660;52.578;13.288;2023-05-02T12:56:50;20.40;62.80
30983;DHT22;17660;52.578;13.288;2023-05-02T12:59:27;20.20;64.30
30983;DHT22;17660;52.578;13.288;2023-05-02T13:01:54;20.30;64.60
30983;DHT22;17660;52.578;13.288;2023-05-02T13:04:21;20.30;62.00
30983;DHT22;17660;52.578;13.288;2023-05-02T13:06:48;19.90;63.10
30983;DHT22;17660;52.578;13.288;2023-05-02T13:09:15;19.70;64.50
30983;DHT22;17660;52.578;13.288;2023-05-02T13:11:42;19.70;63.60
30983;DHT22;17660;52.578;13.288;2023-05-02T13:14:09;19.40;62.50
30983;DHT22;17660;52.578;13.288;2023-05-02T13:16:36;19.10;64.70
30983;DHT22;17660;52.578;13.288;2023-05-02T13:19:03;18.70;64.90
30983;DHT22;17660;52.578;13.288;2023-05-02T13:21:30;18.70;66.00
30983;DHT22;17660;52.578;13.288;2023-05-02T13:23:57;18.50;66.10
30983;DHT22;17660;52.578;13.288;2023-05-02T13:26:24;18.80;65.30
30983;DHT22;17660;52.578;13.288;2023-05-02T13:28:50;18.90;64.80
30983;DHT22;17660;52.578;13.288;2023-05-02T13:31:17;18.40;65.30
30983;DHT22;17660;52.578;13.288;2023-05-02T13:33:44;18.20;65.70
30983;DHT22;17660;52.578;13.288;2023-05-02T13:36:10;18.00;65.50
30983;DHT22;17660;52.578;13.288;2023-05-02T13:38:37;18.20;65.50
30983;DHT22;17660;52.578;13.288;2023-05-02T13:41:04;18.10;64.20
30983;DHT22;17660;52.578;13.288;2023-05-02T13:43:31;17.90;64.40
30983;DHT22;17660;52.578;13.288;2023-05-02T13:45:58;18.20;65.70
30983;DHT22;17660;52.578;13.288;2023-05-02T13:48:24;18.20;64.10
30983;DHT22;17660;52.578;13.288;2023-05-02T13:50:51;17.90;64.70
30983;DHT22;17660;52.578;13.288;2023-05-02T13:53:17;18.00;65.00
30983;DHT22;17660;52.578;13.288;2023-05-02T13:55:44;17.50;66.10
30983;DHT22;17660;52.578;13.288;2023-05-02T13:58:11;17.10;66.60
30983;DHT22;17660;52.578;13.288;2023-05-02T14:00:38;17.20;67.20
30983;DHT22;17660;52.578;13.288;2023-05-02T14:03:04;17.10;66.50
30983;DHT22;17660;52.578;13.288;2023-05-02T14:05:32;17.00;66.70
30983;DHT22;17660;52.578;13.288;2023-05-02T14:07:58;16.80;66.20
30983;DHT22;17660;52.578;13.288;2023-05-02T14:10:25;16.70;66.00
30983;DHT22;17660;52.578;13.288;2023-05-02T14:12:52;16.90;66.10
30983;DHT22;17660;52.578;13.288;2023-05-02T14:15:18;16.70;66.00
30983;DHT22;17660;52.578;13.288;2023-05-02T14:17:46;16.60;66.10
30983;DHT22;17660;52.578;13.288;2023-05-02T14:20:14;16.20;67.10
30983;DHT22;17660;52.578;13.288;2023-05-02T14:22:41;16.00;66.90
30983;DHT22;17660;52.578;13.288;2023-05-02T14:25:08;16.10;67.20
30983;DHT22;17660;52.578;13.288;2023-05-02T14:27:35;16.10;66.70
30983;DHT22;17660;52.578;13.288;2023-05-02T14:30:02;15.90;66.90
30983;DHT22;17660;52.578;13.288;2023-05-02T14:32:29;15.70;67.80
30983;DHT22;17660;52.578;13.288;2023-05-02T14:34:55;15.80;67.50
30983;DHT22;17660;52.578;13.288;2023-05-02T14:37:22;15.70;67.90
30983;DHT22;17660;52.578;13.288;2023-05-02T14:39:49;15.60;68.30
30983;DHT22;17660;52.578;13.288;2023-05-02T14:42:21;15.70;68.40
30983;DHT22;17660;52.578;13.288;2023-05-02T14:44:48;15.80;67.70
30983;DHT22;17660;52.578;13.288;2023-05-02T14:47:14;15.70;67.60
30983;DHT22;17660;52.578;13.288;2023-05-02T14:49:41;15.60;67.80
30983;DHT22;17660;52.578;13.288;2023-05-02T14:52:08;15.30;68.30
30983;DHT22;17660;52.578;13.288;2023-05-02T14:54:34;15.20;68.10
30983;DHT22;17660;52.578;13.288;2023-05-02T14:57:01;14.70;68.90
30983;DHT22;17660;52.578;13.288;2023-05-02T14:59:29;14.70;68.90
30983;DHT22;17660;52.578;13.288;2023-05-02T15:01:56;14.70;69.50
30983;DHT22;17660;52.578;13.288;2023-05-02T15:04:22;14.90;69.30
30983;DHT22;17660;52.578;13.288;2023-05-02T15:06:51;15.10;69.00
30983;DHT22;17660;52.578;13.288;2023-05-02T15:09:20;15.10;67.70
30983;DHT22;17660;52.578;13.288;2023-05-02T15:11:46;16.00;67.60
30983;DHT22;17660;52.578;13.288;2023-05-02T15:14:13;17.80;63.70
30983;DHT22;17660;52.578;13.288;2023-05-02T15:16:40;19.50;60.20
30983;DHT22;17660;52.578;13.288;2023-05-02T15:19:07;19.70;58.20
30983;DHT22;17660;52.578;13.288;2023-05-02T15:21:33;18.80;57.90
30983;DHT22;17660;52.578;13.288;2023-05-02T15:24:00;18.30;60.60
30983;DHT22;17660;52.578;13.288;2023-05-02T15:26:28;18.00;61.50
30983;DHT22;17660;52.578;13.288;2023-05-02T15:28:54;17.90;61.30
30983;DHT22;17660;52.578;13.288;2023-05-02T15:31:21;17.80;60.80
30983;DHT22;17660;52.578;13.288;2023-05-02T15:33:48;17.50;61.80
30983;DHT22;17660;52.578;13.288;2023-05-02T15:36:14;17.40;62.10
30983;DHT22;17660;52.578;13.288;2023-05-02T15:38:41;17.40;61.30
30983;DHT22;17660;52.578;13.288;2023-05-02T15:41:09;17.00;61.10
30983;DHT22;17660;52.578;13.288;2023-05-02T15:43:36;16.80;61.70
30983;DHT22;17660;52.578;13.288;2023-05-02T15:46:03;16.40;62.60
30983;DHT22;17660;52.578;13.288;2023-05-02T15:48:30;16.20;62.80
30983;DHT22;17660;52.578;13.288;2023-05-02T15:51:00;16.30;63.60
30983;DHT22;17660;52.578;13.288;2023-05-02T15:53:28;16.30;63.40
30983;DHT22;17660;52.578;13.288;2023-05-02T15:55:54;16.30;63.60
30983;DHT22;17660;52.578;13.288;2023-05-02T15:58:21;16.30;63.20
30983;DHT22;17660;52.578;13.288;2023-05-02T16:00:48;16.30;63.80
30983;DHT22;17660;52.578;13.288;2023-05-02T16:03:15;16.40;63.80
30983;DHT22;17660;52.578;13.288;2023-05-02T16:05:41;16.60;63.60
30983;DHT22;17660;52.578;13.288;2023-05-02T16:08:08;16.00;62.90
30983;DHT22;17660;52.578;13.288;2023-05-02T16:10:35;15.90;64.00
30983;DHT22;17660;52.578;13.288;2023-05-02T16:13:04;15.90;63.00